Weather at Kingscote Airport

Public forecast

Using degrees Celsius for public forecast. Weather courtesy of forecast.io.

Closest aviation weather report (METAR) to Kingscote Airport

Closest report is Adelaide International Airport, 67.7 nm (125.3 km) NE. Retrieved 2021/01/26 02:30 UTC (0 seconds ago):

YPAD 260230Z 21012KT 9999 FEW028 SCT040 21/12 Q1007

Closest aviation forecast (TAF) to Kingscote Airport

Closest forecast is Adelaide International Airport, 67.7 nm (125.3 km) NE. Retrieved 2021-01-26 03:37 UTC (0 seconds ago):

TAF YPAD 260208Z 2603/2706 21014KT 9999 SCT035 FM260700 17014KT 9999 FEW030 FM261400 12012KT CAVOK FM270200 23010KT CAVOK